Evergreen Park, IL

8:15 PM CST on November 14, 2019 (GMT -0600)
Evergreen Park | | Change Station

Elev 0 ft 41.73 °N, 87.70 °W | Updated 19 seconds ago

Overcast
Overcast
26.8 °F
Feels Like 27 °F
N
2
Wind Variable Wind from WNW
Gusts 8.0 mph

Today
High -- | Low -- °F
--% Chance of Precip.
Yesterday
High -- | Low -- °F
Precip. -- in
Pressure 30.36 in
Visibility 10.0 miles
Clouds Overcast 2300 ft
Windchill 27 °F
Dew Point 20 °F
Humidity 77%
Rainfall 0.00 in
Snow Depth Not available.
6:38 AM 4:31 PM
Waning Gibbous, 93% visible
METAR KMDW 150153Z 28012KT 10SM OVC023 M03/M08 A3032 RMK AO2 SLP280 T10281078
Pressure 30.36 in
Visibility 10.0 miles
Clouds Overcast 2300 ft
Windchill 27 °F
Dew Point 20 °F
Humidity 77%
Rainfall 0.00 in
Snow Depth Not available.
6:38 AM 4:31 PM
Waning Gibbous, 93% visible
METAR KMDW 150153Z 28012KT 10SM OVC023 M03/M08 A3032 RMK AO2 SLP280 T10281078

Get Severe Weather Alerts

Thanks for signing up!

Be on the lookout for a verification email in your inbox.

You'll start receiving the daily forecast at 6 AM.

×

10-Day Weather Forecast

Almanac

Astronomy

Nov. 14, 2019 Rise Set
Actual Time
Civil Twilight
Nautical Twilight
Astronomical Twilight
Moon
Length of Visible Light
Length of Day
Tomorrow will be .
, % of the Moon is Illuminated

Today's Extremes

State Highs State Lows

Community

WunderPhotos

Category 6

Welcome to Category 6. This is the collective home for Weather Underground's featured writeups by Dr. Jeff Masters (right), Bob Henson (left), Chris Burt, and other regular contributors.

Nearby

Air Quality

  Air Quality AQ Index Pollutant
Not available.

Snow Depth

Station Depth Elevation

Earthquake Activity

City Distance Mag. Time & Date
Minimum magnitude displayed is 2.5.

Coastal Water Temperatures

Place Temperature

Stations

Nearby Weather Stations

Station Location Temp. Windchill Dew Point Humidity Wind Precip. Elev Updated Type
                   

Watches & Warnings

There are currently no watches in effect.